sensor_id;sensor_type;location;lat;lon;timestamp;temperature;humidity
25933;DHT22;13731;51.166;4.474;2023-04-03T00:02:19;3.00;1.00
25933;DHT22;13731;51.166;4.474;2023-04-03T00:04:45;3.00;1.00
25933;DHT22;13731;51.166;4.474;2023-04-03T00:07:11;2.90;1.00
25933;DHT22;13731;51.166;4.474;2023-04-03T00:09:38;2.90;1.00
25933;DHT22;13731;51.166;4.474;2023-04-03T00:12:04;2.90;1.00
25933;DHT22;13731;51.166;4.474;2023-04-03T00:14:30;2.80;1.00
25933;DHT22;13731;51.166;4.474;2023-04-03T00:16:56;2.80;1.00
25933;DHT22;13731;51.166;4.474;2023-04-03T00:19:22;2.80;1.00
25933;DHT22;13731;51.166;4.474;2023-04-03T00:21:47;2.80;1.00
25933;DHT22;13731;51.166;4.474;2023-04-03T00:24:13;2.80;1.00
25933;DHT22;13731;51.166;4.474;2023-04-03T00:26:40;3.00;1.00
25933;DHT22;13731;51.166;4.474;2023-04-03T00:29:05;3.20;1.00
25933;DHT22;13731;51.166;4.474;2023-04-03T00:31:32;3.20;1.00
25933;DHT22;13731;51.166;4.474;2023-04-03T00:33:58;3.20;1.00
25933;DHT22;13731;51.166;4.474;2023-04-03T00:36:24;3.10;1.00
25933;DHT22;13731;51.166;4.474;2023-04-03T00:38:51;3.00;1.00
25933;DHT22;13731;51.166;4.474;2023-04-03T00:41:17;3.00;1.00
25933;DHT22;13731;51.166;4.474;2023-04-03T00:43:44;3.00;1.00
25933;DHT22;13731;51.166;4.474;2023-04-03T00:46:10;2.90;1.00
25933;DHT22;13731;51.166;4.474;2023-04-03T00:48:43;2.90;1.00
25933;DHT22;13731;51.166;4.474;2023-04-03T00:51:16;2.90;1.00
25933;DHT22;13731;51.166;4.474;2023-04-03T00:53:47;3.00;1.00
25933;DHT22;13731;51.166;4.474;2023-04-03T00:56:18;3.10;1.00
25933;DHT22;13731;51.166;4.474;2023-04-03T00:58:51;3.10;1.00
25933;DHT22;13731;51.166;4.474;2023-04-03T01:01:25;3.00;1.00
25933;DHT22;13731;51.166;4.474;2023-04-03T01:03:52;3.00;1.00
25933;DHT22;13731;51.166;4.474;2023-04-03T01:06:23;2.90;1.00
25933;DHT22;13731;51.166;4.474;2023-04-03T01:08:53;2.80;1.00
25933;DHT22;13731;51.166;4.474;2023-04-03T01:11:21;2.90;1.00
25933;DHT22;13731;51.166;4.474;2023-04-03T01:13:48;2.80;1.00
25933;DHT22;13731;51.166;4.474;2023-04-03T01:16:15;2.70;1.00
25933;DHT22;13731;51.166;4.474;2023-04-03T01:18:42;2.70;1.00
25933;DHT22;13731;51.166;4.474;2023-04-03T01:24:08;2.70;1.00
25933;DHT22;13731;51.166;4.474;2023-04-03T01:26:37;2.60;1.00
25933;DHT22;13731;51.166;4.474;2023-04-03T01:29:03;2.70;1.00
25933;DHT22;13731;51.166;4.474;2023-04-03T01:34:02;2.60;1.00
25933;DHT22;13731;51.166;4.474;2023-04-03T01:36:31;2.60;1.00
25933;DHT22;13731;51.166;4.474;2023-04-03T01:38:59;2.50;1.00
25933;DHT22;13731;51.166;4.474;2023-04-03T01:41:26;2.60;1.00
25933;DHT22;13731;51.166;4.474;2023-04-03T01:43:56;2.60;1.00
25933;DHT22;13731;51.166;4.474;2023-04-03T01:46:22;2.50;1.00
25933;DHT22;13731;51.166;4.474;2023-04-03T01:48:48;2.50;1.00
25933;DHT22;13731;51.166;4.474;2023-04-03T01:51:14;2.50;1.00
25933;DHT22;13731;51.166;4.474;2023-04-03T01:53:41;2.50;1.00
25933;DHT22;13731;51.166;4.474;2023-04-03T01:56:07;2.50;1.00
25933;DHT22;13731;51.166;4.474;2023-04-03T01:58:33;2.40;1.00
25933;DHT22;13731;51.166;4.474;2023-04-03T02:00:59;2.40;1.00
25933;DHT22;13731;51.166;4.474;2023-04-03T02:03:26;2.40;1.00
25933;DHT22;13731;51.166;4.474;2023-04-03T02:05:52;2.40;1.00
25933;DHT22;13731;51.166;4.474;2023-04-03T02:08:18;2.30;1.00
25933;DHT22;13731;51.166;4.474;2023-04-03T02:10:47;2.30;1.00
25933;DHT22;13731;51.166;4.474;2023-04-03T02:13:14;2.40;1.00
25933;DHT22;13731;51.166;4.474;2023-04-03T02:15:40;2.50;1.00
25933;DHT22;13731;51.166;4.474;2023-04-03T02:18:06;2.60;1.00
25933;DHT22;13731;51.166;4.474;2023-04-03T02:20:33;2.60;1.00
25933;DHT22;13731;51.166;4.474;2023-04-03T02:22:59;2.60;1.00
25933;DHT22;13731;51.166;4.474;2023-04-03T02:25:25;2.60;1.00
25933;DHT22;13731;51.166;4.474;2023-04-03T02:27:51;2.50;1.00
25933;DHT22;13731;51.166;4.474;2023-04-03T02:30:18;2.60;1.00
25933;DHT22;13731;51.166;4.474;2023-04-03T02:32:43;2.50;1.00
25933;DHT22;13731;51.166;4.474;2023-04-03T02:35:10;2.50;1.00
25933;DHT22;13731;51.166;4.474;2023-04-03T02:37:38;2.50;1.00
25933;DHT22;13731;51.166;4.474;2023-04-03T02:40:05;2.60;1.00
25933;DHT22;13731;51.166;4.474;2023-04-03T02:42:31;2.60;1.00
25933;DHT22;13731;51.166;4.474;2023-04-03T02:44:57;2.50;1.00
25933;DHT22;13731;51.166;4.474;2023-04-03T02:47:23;2.50;1.00
25933;DHT22;13731;51.166;4.474;2023-04-03T02:49:49;2.50;1.00
25933;DHT22;13731;51.166;4.474;2023-04-03T02:52:15;2.40;1.00
25933;DHT22;13731;51.166;4.474;2023-04-03T02:54:41;2.50;1.00
25933;DHT22;13731;51.166;4.474;2023-04-03T02:57:09;2.50;1.00
25933;DHT22;13731;51.166;4.474;2023-04-03T02:59:38;2.40;1.00
25933;DHT22;13731;51.166;4.474;2023-04-03T03:02:08;2.40;1.00
25933;DHT22;13731;51.166;4.474;2023-04-03T03:04:35;2.30;1.00
25933;DHT22;13731;51.166;4.474;2023-04-03T03:07:02;2.30;1.00
25933;DHT22;13731;51.166;4.474;2023-04-03T03:09:28;2.30;1.00
25933;DHT22;13731;51.166;4.474;2023-04-03T03:11:55;2.30;1.00
25933;DHT22;13731;51.166;4.474;2023-04-03T03:14:22;2.30;1.00
25933;DHT22;13731;51.166;4.474;2023-04-03T03:16:48;2.20;1.00
25933;DHT22;13731;51.166;4.474;2023-04-03T03:19:14;2.10;1.00
25933;DHT22;13731;51.166;4.474;2023-04-03T03:21:40;2.10;1.00
25933;DHT22;13731;51.166;4.474;2023-04-03T03:24:06;2.10;1.00
25933;DHT22;13731;51.166;4.474;2023-04-03T03:26:32;2.10;1.00
25933;DHT22;13731;51.166;4.474;2023-04-03T03:28:58;2.10;1.00
25933;DHT22;13731;51.166;4.474;2023-04-03T03:31:25;2.00;1.00
25933;DHT22;13731;51.166;4.474;2023-04-03T03:33:51;2.00;1.00
25933;DHT22;13731;51.166;4.474;2023-04-03T03:36:18;2.00;1.00
25933;DHT22;13731;51.166;4.474;2023-04-03T03:38:44;2.00;1.00
25933;DHT22;13731;51.166;4.474;2023-04-03T03:41:10;2.10;1.00
25933;DHT22;13731;51.166;4.474;2023-04-03T03:43:36;2.10;1.00
25933;DHT22;13731;51.166;4.474;2023-04-03T03:46:04;2.00;1.00
25933;DHT22;13731;51.166;4.474;2023-04-03T03:48:30;2.00;1.00
25933;DHT22;13731;51.166;4.474;2023-04-03T03:50:56;1.90;1.00
25933;DHT22;13731;51.166;4.474;2023-04-03T03:53:26;2.00;1.00
25933;DHT22;13731;51.166;4.474;2023-04-03T03:55:56;1.90;1.00
25933;DHT22;13731;51.166;4.474;2023-04-03T03:58:24;1.90;1.00
25933;DHT22;13731;51.166;4.474;2023-04-03T04:00:51;2.00;1.00
25933;DHT22;13731;51.166;4.474;2023-04-03T04:03:17;2.00;1.00
25933;DHT22;13731;51.166;4.474;2023-04-03T04:05:45;2.10;1.00
25933;DHT22;13731;51.166;4.474;2023-04-03T04:08:12;2.10;1.00
25933;DHT22;13731;51.166;4.474;2023-04-03T04:10:38;2.00;1.00
25933;DHT22;13731;51.166;4.474;2023-04-03T04:13:05;2.00;1.00
25933;DHT22;13731;51.166;4.474;2023-04-03T04:15:31;1.90;1.00
25933;DHT22;13731;51.166;4.474;2023-04-03T04:17:57;1.90;1.00
25933;DHT22;13731;51.166;4.474;2023-04-03T04:20:24;1.90;1.00
25933;DHT22;13731;51.166;4.474;2023-04-03T04:22:50;1.90;1.00
25933;DHT22;13731;51.166;4.474;2023-04-03T04:25:18;1.90;1.00
25933;DHT22;13731;51.166;4.474;2023-04-03T04:27:44;1.90;1.00
25933;DHT22;13731;51.166;4.474;2023-04-03T04:30:14;1.90;1.00
25933;DHT22;13731;51.166;4.474;2023-04-03T04:32:40;1.80;1.00
25933;DHT22;13731;51.166;4.474;2023-04-03T04:35:06;1.90;1.00
25933;DHT22;13731;51.166;4.474;2023-04-03T04:37:34;1.80;1.00
25933;DHT22;13731;51.166;4.474;2023-04-03T04:40:00;1.80;1.00
25933;DHT22;13731;51.166;4.474;2023-04-03T04:42:27;1.80;1.00
25933;DHT22;13731;51.166;4.474;2023-04-03T04:44:53;1.80;1.00
25933;DHT22;13731;51.166;4.474;2023-04-03T04:47:19;1.80;1.00
25933;DHT22;13731;51.166;4.474;2023-04-03T04:49:45;1.70;1.00
25933;DHT22;13731;51.166;4.474;2023-04-03T04:52:13;1.70;1.00
25933;DHT22;13731;51.166;4.474;2023-04-03T04:54:40;1.70;1.00
25933;DHT22;13731;51.166;4.474;2023-04-03T04:57:06;1.70;1.00
25933;DHT22;13731;51.166;4.474;2023-04-03T04:59:32;1.60;1.00
25933;DHT22;13731;51.166;4.474;2023-04-03T05:01:58;1.60;1.00
25933;DHT22;13731;51.166;4.474;2023-04-03T05:04:25;1.70;1.00
25933;DHT22;13731;51.166;4.474;2023-04-03T05:06:57;1.70;1.00
25933;DHT22;13731;51.166;4.474;2023-04-03T05:09:26;1.70;1.00
25933;DHT22;13731;51.166;4.474;2023-04-03T05:11:53;1.70;1.00
25933;DHT22;13731;51.166;4.474;2023-04-03T05:14:22;1.70;1.00
25933;DHT22;13731;51.166;4.474;2023-04-03T05:16:48;1.70;1.00
25933;DHT22;13731;51.166;4.474;2023-04-03T05:19:22;1.80;1.00
25933;DHT22;13731;51.166;4.474;2023-04-03T05:21:48;1.90;1.00
25933;DHT22;13731;51.166;4.474;2023-04-03T05:24:16;1.90;1.00
25933;DHT22;13731;51.166;4.474;2023-04-03T05:26:43;1.90;1.00
25933;DHT22;13731;51.166;4.474;2023-04-03T05:29:10;1.90;1.00
25933;DHT22;13731;51.166;4.474;2023-04-03T05:31:37;1.90;1.00
25933;DHT22;13731;51.166;4.474;2023-04-03T05:34:05;1.90;1.00
25933;DHT22;13731;51.166;4.474;2023-04-03T05:36:34;2.00;1.00
25933;DHT22;13731;51.166;4.474;2023-04-03T05:39:04;1.90;1.00
25933;DHT22;13731;51.166;4.474;2023-04-03T05:41:30;1.90;10.50
25933;DHT22;13731;51.166;4.474;2023-04-03T05:43:56;1.90;21.00
25933;DHT22;13731;51.166;4.474;2023-04-03T05:46:25;1.90;23.40
25933;DHT22;13731;51.166;4.474;2023-04-03T05:48:54;1.90;28.50
25933;DHT22;13731;51.166;4.474;2023-04-03T05:51:30;1.80;65.00
25933;DHT22;13731;51.166;4.474;2023-04-03T05:54:19;1.90;93.00
25933;DHT22;13731;51.166;4.474;2023-04-03T05:56:49;1.90;74.00
25933;DHT22;13731;51.166;4.474;2023-04-03T05:59:17;2.00;54.50
25933;DHT22;13731;51.166;4.474;2023-04-03T06:01:44;2.10;48.30
25933;DHT22;13731;51.166;4.474;2023-04-03T06:04:10;2.20;27.60
25933;DHT22;13731;51.166;4.474;2023-04-03T06:06:57;2.10;24.00
25933;DHT22;13731;51.166;4.474;2023-04-03T06:09:27;2.20;35.70
25933;DHT22;13731;51.166;4.474;2023-04-03T06:11:54;2.20;12.90
25933;DHT22;13731;51.166;4.474;2023-04-03T06:14:23;2.30;12.50
25933;DHT22;13731;51.166;4.474;2023-04-03T06:16:49;2.30;3.40
25933;DHT22;13731;51.166;4.474;2023-04-03T06:19:15;2.40;9.70
25933;DHT22;13731;51.166;4.474;2023-04-03T06:21:46;2.40;1.00
25933;DHT22;13731;51.166;4.474;2023-04-03T06:24:15;2.50;1.00
25933;DHT22;13731;51.166;4.474;2023-04-03T06:26:42;2.50;1.00
25933;DHT22;13731;51.166;4.474;2023-04-03T06:29:08;2.60;1.00
25933;DHT22;13731;51.166;4.474;2023-04-03T06:31:35;2.60;1.00
25933;DHT22;13731;51.166;4.474;2023-04-03T06:34:03;2.60;1.00
25933;DHT22;13731;51.166;4.474;2023-04-03T06:36:29;2.80;1.00
25933;DHT22;13731;51.166;4.474;2023-04-03T06:38:55;2.80;1.00
25933;DHT22;13731;51.166;4.474;2023-04-03T06:41:21;2.70;99.90
25933;DHT22;13731;51.166;4.474;2023-04-03T06:43:47;2.80;99.90
25933;DHT22;13731;51.166;4.474;2023-04-03T06:46:21;2.80;99.90
25933;DHT22;13731;51.166;4.474;2023-04-03T06:48:47;2.90;99.90
25933;DHT22;13731;51.166;4.474;2023-04-03T06:51:25;3.00;1.00
25933;DHT22;13731;51.166;4.474;2023-04-03T06:53:53;3.00;93.80
25933;DHT22;13731;51.166;4.474;2023-04-03T06:56:19;3.10;99.90
25933;DHT22;13731;51.166;4.474;2023-04-03T06:58:46;3.20;44.00
25933;DHT22;13731;51.166;4.474;2023-04-03T07:01:13;3.30;1.00
25933;DHT22;13731;51.166;4.474;2023-04-03T07:03:40;3.30;99.90
25933;DHT22;13731;51.166;4.474;2023-04-03T07:06:07;3.50;99.90
25933;DHT22;13731;51.166;4.474;2023-04-03T07:08:34;3.60;1.00
25933;DHT22;13731;51.166;4.474;2023-04-03T07:11:00;3.70;99.90
25933;DHT22;13731;51.166;4.474;2023-04-03T07:13:26;3.70;99.90
25933;DHT22;13731;51.166;4.474;2023-04-03T07:15:52;3.80;1.00
25933;DHT22;13731;51.166;4.474;2023-04-03T07:18:19;3.80;1.00
25933;DHT22;13731;51.166;4.474;2023-04-03T07:20:45;4.00;99.90
25933;DHT22;13731;51.166;4.474;2023-04-03T07:23:11;4.00;99.90
25933;DHT22;13731;51.166;4.474;2023-04-03T07:25:42;4.10;99.90
25933;DHT22;13731;51.166;4.474;2023-04-03T07:28:08;4.20;1.00
25933;DHT22;13731;51.166;4.474;2023-04-03T07:30:34;4.30;1.00
25933;DHT22;13731;51.166;4.474;2023-04-03T07:33:00;4.40;99.90
25933;DHT22;13731;51.166;4.474;2023-04-03T07:35:26;4.40;1.00
25933;DHT22;13731;51.166;4.474;2023-04-03T07:37:52;4.50;20.40
25933;DHT22;13731;51.166;4.474;2023-04-03T07:40:18;4.50;1.00
25933;DHT22;13731;51.166;4.474;2023-04-03T07:42:44;4.60;1.00
25933;DHT22;13731;51.166;4.474;2023-04-03T07:45:10;4.60;99.90
25933;DHT22;13731;51.166;4.474;2023-04-03T07:47:37;4.70;99.90
25933;DHT22;13731;51.166;4.474;2023-04-03T07:50:03;4.90;99.90
25933;DHT22;13731;51.166;4.474;2023-04-03T07:52:29;4.90;1.00
25933;DHT22;13731;51.166;4.474;2023-04-03T07:54:55;4.90;1.00
25933;DHT22;13731;51.166;4.474;2023-04-03T07:57:20;4.90;1.00
25933;DHT22;13731;51.166;4.474;2023-04-03T07:59:46;5.10;99.90
25933;DHT22;13731;51.166;4.474;2023-04-03T08:02:12;5.10;1.00
25933;DHT22;13731;51.166;4.474;2023-04-03T08:04:38;5.20;99.90
25933;DHT22;13731;51.166;4.474;2023-04-03T08:07:04;5.30;99.90
25933;DHT22;13731;51.166;4.474;2023-04-03T08:09:30;5.40;1.00
25933;DHT22;13731;51.166;4.474;2023-04-03T08:11:58;5.40;1.00
25933;DHT22;13731;51.166;4.474;2023-04-03T08:14:24;5.40;1.00
25933;DHT22;13731;51.166;4.474;2023-04-03T08:16:50;5.40;64.00
25933;DHT22;13731;51.166;4.474;2023-04-03T08:19:16;5.50;1.00
25933;DHT22;13731;51.166;4.474;2023-04-03T08:21:44;5.50;1.00
25933;DHT22;13731;51.166;4.474;2023-04-03T08:24:11;5.60;1.00
25933;DHT22;13731;51.166;4.474;2023-04-03T08:26:37;5.80;1.00
25933;DHT22;13731;51.166;4.474;2023-04-03T08:29:03;6.00;1.00
25933;DHT22;13731;51.166;4.474;2023-04-03T08:31:29;6.00;99.90
25933;DHT22;13731;51.166;4.474;2023-04-03T08:33:56;6.10;99.90
25933;DHT22;13731;51.166;4.474;2023-04-03T08:36:28;6.30;99.90
25933;DHT22;13731;51.166;4.474;2023-04-03T08:38:55;6.40;99.90
25933;DHT22;13731;51.166;4.474;2023-04-03T08:41:35;6.40;1.00
25933;DHT22;13731;51.166;4.474;2023-04-03T08:44:39;6.40;87.50
25933;DHT22;13731;51.166;4.474;2023-04-03T08:47:25;6.50;99.90
25933;DHT22;13731;51.166;4.474;2023-04-03T08:49:57;6.60;99.90
25933;DHT22;13731;51.166;4.474;2023-04-03T08:52:52;6.70;24.80
25933;DHT22;13731;51.166;4.474;2023-04-03T08:55:31;6.90;1.00
25933;DHT22;13731;51.166;4.474;2023-04-03T08:58:04;6.80;1.00
25933;DHT22;13731;51.166;4.474;2023-04-03T09:00:51;6.90;1.00
25933;DHT22;13731;51.166;4.474;2023-04-03T09:03:20;7.00;1.00
25933;DHT22;13731;51.166;4.474;2023-04-03T09:08:29;7.10;1.00
25933;DHT22;13731;51.166;4.474;2023-04-03T09:16:39;7.30;1.00
25933;DHT22;13731;51.166;4.474;2023-04-03T09:21:39;7.50;99.90
25933;DHT22;13731;51.166;4.474;2023-04-03T09:24:11;7.40;99.90
25933;DHT22;13731;51.166;4.474;2023-04-03T09:26:48;7.50;99.90
25933;DHT22;13731;51.166;4.474;2023-04-03T09:29:22;7.80;99.90
25933;DHT22;13731;51.166;4.474;2023-04-03T09:31:52;7.90;99.90
25933;DHT22;13731;51.166;4.474;2023-04-03T09:34:28;8.00;99.90
25933;DHT22;13731;51.166;4.474;2023-04-03T09:36:58;8.00;99.90
25933;DHT22;13731;51.166;4.474;2023-04-03T09:39:27;8.10;99.90
25933;DHT22;13731;51.166;4.474;2023-04-03T09:42:00;8.20;99.90
25933;DHT22;13731;51.166;4.474;2023-04-03T09:44:32;8.30;99.90
25933;DHT22;13731;51.166;4.474;2023-04-03T09:46:59;8.40;99.90
25933;DHT22;13731;51.166;4.474;2023-04-03T09:49:26;8.30;99.90
25933;DHT22;13731;51.166;4.474;2023-04-03T09:51:52;8.30;99.90
25933;DHT22;13731;51.166;4.474;2023-04-03T09:54:39;8.20;99.90
25933;DHT22;13731;51.166;4.474;2023-04-03T09:57:09;8.30;99.90
25933;DHT22;13731;51.166;4.474;2023-04-03T09:59:38;8.50;99.90
25933;DHT22;13731;51.166;4.474;2023-04-03T10:02:23;8.50;99.90
25933;DHT22;13731;51.166;4.474;2023-04-03T10:04:54;8.50;99.90
25933;DHT22;13731;51.166;4.474;2023-04-03T10:07:31;8.60;99.90
25933;DHT22;13731;51.166;4.474;2023-04-03T10:10:16;8.60;99.90
25933;DHT22;13731;51.166;4.474;2023-04-03T10:12:43;9.10;99.90
25933;DHT22;13731;51.166;4.474;2023-04-03T10:15:14;10.60;99.90
25933;DHT22;13731;51.166;4.474;2023-04-03T10:18:02;12.00;99.60
25933;DHT22;13731;51.166;4.474;2023-04-03T10:20:43;12.10;53.90
25933;DHT22;13731;51.166;4.474;2023-04-03T10:23:24;12.40;34.40
25933;DHT22;13731;51.166;4.474;2023-04-03T10:28:31;12.30;14.90
25933;DHT22;13731;51.166;4.474;2023-04-03T10:31:27;13.30;7.40
25933;DHT22;13731;51.166;4.474;2023-04-03T10:36:47;14.00;1.00
25933;DHT22;13731;51.166;4.474;2023-04-03T10:59:25;14.20;1.00
25933;DHT22;13731;51.166;4.474;2023-04-03T11:01:59;14.70;1.00
25933;DHT22;13731;51.166;4.474;2023-04-03T11:04:29;14.20;1.00
25933;DHT22;13731;51.166;4.474;2023-04-03T11:07:02;13.70;1.00
25933;DHT22;13731;51.166;4.474;2023-04-03T11:09:35;13.90;1.00
25933;DHT22;13731;51.166;4.474;2023-04-03T11:12:26;14.10;1.00
25933;DHT22;13731;51.166;4.474;2023-04-03T11:14:55;14.50;1.00
25933;DHT22;13731;51.166;4.474;2023-04-03T11:17:39;14.30;1.00
25933;DHT22;13731;51.166;4.474;2023-04-03T11:20:20;14.00;1.00
25933;DHT22;13731;51.166;4.474;2023-04-03T11:25:44;13.80;1.00
25933;DHT22;13731;51.166;4.474;2023-04-03T11:28:13;14.10;1.00
25933;DHT22;13731;51.166;4.474;2023-04-03T11:30:45;14.90;1.00
25933;DHT22;13731;51.166;4.474;2023-04-03T11:33:24;15.30;1.00
25933;DHT22;13731;51.166;4.474;2023-04-03T11:35:56;15.10;1.00
25933;DHT22;13731;51.166;4.474;2023-04-03T11:38:30;14.90;1.00
25933;DHT22;13731;51.166;4.474;2023-04-03T11:41:00;15.00;1.00
25933;DHT22;13731;51.166;4.474;2023-04-03T11:43:30;15.50;1.00
25933;DHT22;13731;51.166;4.474;2023-04-03T11:50:55;15.40;1.00
25933;DHT22;13731;51.166;4.474;2023-04-03T11:53:40;16.10;1.00
25933;DHT22;13731;51.166;4.474;2023-04-03T11:56:28;15.50;1.00
25933;DHT22;13731;51.166;4.474;2023-04-03T12:04:19;15.90;1.00
25933;DHT22;13731;51.166;4.474;2023-04-03T12:11:53;15.60;1.00
25933;DHT22;13731;51.166;4.474;2023-04-03T12:14:23;15.90;1.00
25933;DHT22;13731;51.166;4.474;2023-04-03T12:16:53;15.40;1.00
25933;DHT22;13731;51.166;4.474;2023-04-03T12:24:36;17.00;1.00
25933;DHT22;13731;51.166;4.474;2023-04-03T12:27:09;17.00;1.00
25933;DHT22;13731;51.166;4.474;2023-04-03T12:35:31;18.20;1.00
25933;DHT22;13731;51.166;4.474;2023-04-03T12:41:16;17.30;1.00
25933;DHT22;13731;51.166;4.474;2023-04-03T12:46:18;17.90;1.00
25933;DHT22;13731;51.166;4.474;2023-04-03T12:51:15;18.10;1.00
25933;DHT22;13731;51.166;4.474;2023-04-03T12:53:44;18.50;1.00
25933;DHT22;13731;51.166;4.474;2023-04-03T12:56:28;18.40;1.00
25933;DHT22;13731;51.166;4.474;2023-04-03T12:58:57;17.50;1.00
25933;DHT22;13731;51.166;4.474;2023-04-03T13:01:38;18.50;1.00
25933;DHT22;13731;51.166;4.474;2023-04-03T13:04:04;19.40;1.00
25933;DHT22;13731;51.166;4.474;2023-04-03T13:06:38;20.00;1.00
25933;DHT22;13731;51.166;4.474;2023-04-03T13:09:17;18.30;1.00
25933;DHT22;13731;51.166;4.474;2023-04-03T13:11:44;18.30;1.00
25933;DHT22;13731;51.166;4.474;2023-04-03T13:14:22;17.70;1.00
25933;DHT22;13731;51.166;4.474;2023-04-03T13:17:11;18.30;1.00
25933;DHT22;13731;51.166;4.474;2023-04-03T13:19:39;18.80;1.00
25933;DHT22;13731;51.166;4.474;2023-04-03T13:22:11;18.30;1.00
25933;DHT22;13731;51.166;4.474;2023-04-03T13:24:43;18.30;1.00
25933;DHT22;13731;51.166;4.474;2023-04-03T13:27:11;18.40;1.00
25933;DHT22;13731;51.166;4.474;2023-04-03T13:29:38;19.20;1.00
25933;DHT22;13731;51.166;4.474;2023-04-03T13:32:06;18.00;1.00
25933;DHT22;13731;51.166;4.474;2023-04-03T13:34:40;18.10;1.00
25933;DHT22;13731;51.166;4.474;2023-04-03T13:37:11;18.40;1.00
25933;DHT22;13731;51.166;4.474;2023-04-03T13:39:44;18.60;1.00
25933;DHT22;13731;51.166;4.474;2023-04-03T13:42:22;18.60;1.00
25933;DHT22;13731;51.166;4.474;2023-04-03T13:44:49;19.70;1.00
25933;DHT22;13731;51.166;4.474;2023-04-03T13:47:18;20.00;1.00
25933;DHT22;13731;51.166;4.474;2023-04-03T13:50:31;19.20;1.00
25933;DHT22;13731;51.166;4.474;2023-04-03T13:52:40;18.50;1.00
25933;DHT22;13731;51.166;4.474;2023-04-03T14:00:37;18.00;1.00
25933;DHT22;13731;51.166;4.474;2023-04-03T14:03:23;18.60;1.00
25933;DHT22;13731;51.166;4.474;2023-04-03T14:05:50;19.70;1.00
25933;DHT22;13731;51.166;4.474;2023-04-03T14:08:16;19.40;1.00
25933;DHT22;13731;51.166;4.474;2023-04-03T14:10:43;18.60;1.00
25933;DHT22;13731;51.166;4.474;2023-04-03T14:13:17;18.90;1.00
25933;DHT22;13731;51.166;4.474;2023-04-03T14:15:47;18.60;1.00
25933;DHT22;13731;51.166;4.474;2023-04-03T14:18:17;18.40;1.00
25933;DHT22;13731;51.166;4.474;2023-04-03T14:20:44;18.20;1.00
25933;DHT22;13731;51.166;4.474;2023-04-03T14:23:10;18.70;1.00
25933;DHT22;13731;51.166;4.474;2023-04-03T14:25:36;18.40;1.00
25933;DHT22;13731;51.166;4.474;2023-04-03T14:28:32;17.80;1.00
25933;DHT22;13731;51.166;4.474;2023-04-03T14:30:58;17.40;1.00
25933;DHT22;13731;51.166;4.474;2023-04-03T14:33:24;16.40;1.00
25933;DHT22;13731;51.166;4.474;2023-04-03T14:35:52;17.20;1.00
25933;DHT22;13731;51.166;4.474;2023-04-03T14:38:28;17.00;1.00
25933;DHT22;13731;51.166;4.474;2023-04-03T14:40:55;17.60;1.00
25933;DHT22;13731;51.166;4.474;2023-04-03T14:43:21;17.90;1.00
25933;DHT22;13731;51.166;4.474;2023-04-03T14:45:48;18.70;1.00
25933;DHT22;13731;51.166;4.474;2023-04-03T14:48:23;18.20;1.00
25933;DHT22;13731;51.166;4.474;2023-04-03T14:50:51;17.70;1.00
25933;DHT22;13731;51.166;4.474;2023-04-03T14:53:18;17.50;1.00
25933;DHT22;13731;51.166;4.474;2023-04-03T14:55:48;17.10;1.00
25933;DHT22;13731;51.166;4.474;2023-04-03T14:58:20;17.60;1.00
25933;DHT22;13731;51.166;4.474;2023-04-03T15:00:46;18.90;1.00
25933;DHT22;13731;51.166;4.474;2023-04-03T15:03:22;19.30;1.00
25933;DHT22;13731;51.166;4.474;2023-04-03T15:05:49;18.30;1.00
25933;DHT22;13731;51.166;4.474;2023-04-03T15:08:23;18.60;1.00
25933;DHT22;13731;51.166;4.474;2023-04-03T15:10:51;18.20;1.00
25933;DHT22;13731;51.166;4.474;2023-04-03T15:13:19;18.80;1.00
25933;DHT22;13731;51.166;4.474;2023-04-03T15:15:46;19.60;1.00
25933;DHT22;13731;51.166;4.474;2023-04-03T15:18:22;19.00;1.00
25933;DHT22;13731;51.166;4.474;2023-04-03T15:20:49;18.30;1.00
25933;DHT22;13731;51.166;4.474;2023-04-03T15:23:16;19.00;1.00
25933;DHT22;13731;51.166;4.474;2023-04-03T15:25:43;19.40;1.00
25933;DHT22;13731;51.166;4.474;2023-04-03T15:30:43;18.10;1.00
25933;DHT22;13731;51.166;4.474;2023-04-03T15:33:09;19.50;1.00
25933;DHT22;13731;51.166;4.474;2023-04-03T15:35:35;19.30;1.00
25933;DHT22;13731;51.166;4.474;2023-04-03T15:38:01;19.10;1.00
25933;DHT22;13731;51.166;4.474;2023-04-03T15:40:27;18.90;1.00
25933;DHT22;13731;51.166;4.474;2023-04-03T15:42:54;18.00;1.00
25933;DHT22;13731;51.166;4.474;2023-04-03T15:45:20;18.50;1.00
25933;DHT22;13731;51.166;4.474;2023-04-03T15:47:47;17.60;1.00
25933;DHT22;13731;51.166;4.474;2023-04-03T15:50:12;17.80;1.00
25933;DHT22;13731;51.166;4.474;2023-04-03T15:52:38;17.50;1.00
25933;DHT22;13731;51.166;4.474;2023-04-03T15:55:05;18.00;1.00
25933;DHT22;13731;51.166;4.474;2023-04-03T15:57:31;18.10;1.00
25933;DHT22;13731;51.166;4.474;2023-04-03T15:59:57;18.10;1.00
25933;DHT22;13731;51.166;4.474;2023-04-03T16:02:23;18.50;1.00
25933;DHT22;13731;51.166;4.474;2023-04-03T16:04:49;18.60;1.00
25933;DHT22;13731;51.166;4.474;2023-04-03T16:07:15;18.70;1.00
25933;DHT22;13731;51.166;4.474;2023-04-03T16:09:41;17.80;1.00
25933;DHT22;13731;51.166;4.474;2023-04-03T16:12:07;17.80;1.00
25933;DHT22;13731;51.166;4.474;2023-04-03T16:14:33;17.60;1.00
25933;DHT22;13731;51.166;4.474;2023-04-03T16:16:59;17.50;1.00
25933;DHT22;13731;51.166;4.474;2023-04-03T16:19:26;17.10;1.00
25933;DHT22;13731;51.166;4.474;2023-04-03T16:21:53;17.70;1.00
25933;DHT22;13731;51.166;4.474;2023-04-03T16:24:20;17.50;1.00
25933;DHT22;13731;51.166;4.474;2023-04-03T16:26:46;17.60;1.00
25933;DHT22;13731;51.166;4.474;2023-04-03T16:29:12;16.80;1.00
25933;DHT22;13731;51.166;4.474;2023-04-03T16:31:38;17.10;1.00
25933;DHT22;13731;51.166;4.474;2023-04-03T16:34:03;16.70;1.00
25933;DHT22;13731;51.166;4.474;2023-04-03T16:36:30;16.60;1.00
25933;DHT22;13731;51.166;4.474;2023-04-03T16:38:56;16.30;1.00
25933;DHT22;13731;51.166;4.474;2023-04-03T16:41:22;16.30;1.00
25933;DHT22;13731;51.166;4.474;2023-04-03T16:43:48;16.40;1.00
25933;DHT22;13731;51.166;4.474;2023-04-03T16:46:14;16.30;1.00
25933;DHT22;13731;51.166;4.474;2023-04-03T16:48:39;15.90;1.00
25933;DHT22;13731;51.166;4.474;2023-04-03T16:51:05;15.90;1.00
25933;DHT22;13731;51.166;4.474;2023-04-03T16:53:31;16.50;1.00
25933;DHT22;13731;51.166;4.474;2023-04-03T16:55:58;15.90;1.00
25933;DHT22;13731;51.166;4.474;2023-04-03T16:58:24;16.00;1.00
25933;DHT22;13731;51.166;4.474;2023-04-03T17:00:50;14.90;1.00
25933;DHT22;13731;51.166;4.474;2023-04-03T17:03:16;14.50;1.00
25933;DHT22;13731;51.166;4.474;2023-04-03T17:05:42;15.10;1.00
25933;DHT22;13731;51.166;4.474;2023-04-03T17:08:09;14.70;1.00
25933;DHT22;13731;51.166;4.474;2023-04-03T17:10:35;14.50;1.00
25933;DHT22;13731;51.166;4.474;2023-04-03T17:13:00;14.20;1.00
25933;DHT22;13731;51.166;4.474;2023-04-03T17:15:26;14.20;1.00
25933;DHT22;13731;51.166;4.474;2023-04-03T17:17:53;13.70;1.00
25933;DHT22;13731;51.166;4.474;2023-04-03T17:20:19;12.70;1.00
25933;DHT22;13731;51.166;4.474;2023-04-03T17:22:45;11.90;1.00
25933;DHT22;13731;51.166;4.474;2023-04-03T17:25:11;11.40;1.00
25933;DHT22;13731;51.166;4.474;2023-04-03T17:27:38;11.10;1.00
25933;DHT22;13731;51.166;4.474;2023-04-03T17:30:05;11.00;1.00
25933;DHT22;13731;51.166;4.474;2023-04-03T17:32:31;10.70;1.00